Time;durP1;ratioP1;P1;durP2;ratioP2;P2;SDS_P1;SDS_P2;PMS_P1;PMS_P2;Temp;Humidity;BMP_temperature;BMP_pressure;BME280_temperature;BME280_humidity;BME280_pressure;Samples;Min_cycle;Max_cycle;Signal;HPM_P1;HPM_P2
2023/06/16 00:01:22;;;;;;;8.65;3.50;;;14.70;95.10;;;;;;5097556;27;19932;-59
2023/06/16 00:03:49;;;;;;;11.10;3.85;;;14.60;95.30;;;;;;5092677;28;20142;-61
2023/06/16 00:06:16;;;;;;;8.95;3.33;;;14.60;95.30;;;;;;5087962;28;20046;-60
2023/06/16 00:08:44;;;;;;;7.65;3.60;;;14.50;95.30;;;;;;5092784;28;20038;-62
2023/06/16 00:11:11;;;;;;;4.25;3.15;;;14.40;95.20;;;;;;5107315;28;20170;-61
2023/06/16 00:13:37;;;;;;;6.85;3.88;;;14.40;95.40;;;;;;5093014;28;20051;-61
2023/06/16 00:16:03;;;;;;;;;;;14.30;95.40;;;;;;5091212;28;20040;-60
2023/06/16 00:18:29;;;;;;;7.05;3.70;;;14.30;95.70;;;;;;5081352;28;19916;-59
2023/06/16 00:20:57;;;;;;;9.70;3.55;;;14.20;95.90;;;;;;5078803;28;20040;-59
2023/06/16 00:23:23;;;;;;;7.50;3.70;;;14.20;96.00;;;;;;5075737;28;20052;-59
2023/06/16 00:25:50;;;;;;;;;;;14.20;95.90;;;;;;5079032;28;20073;-60
2023/06/16 00:28:15;;;;;;;12.83;4.23;;;14.10;96.50;;;;;;5084602;28;20302;-57
2023/06/16 00:30:41;;;;;;;16.15;3.58;;;14.10;96.80;;;;;;5070694;28;20043;-61
2023/06/16 00:33:07;;;;;;;;;;;14.10;96.50;;;;;;5078123;28;20522;-60
2023/06/16 00:35:32;;;;;;;6.05;3.80;;;14.10;96.50;;;;;;5077376;28;20419;-60
2023/06/16 00:37:58;;;;;;;;;;;14.00;96.70;;;;;;5085164;28;20047;-60
2023/06/16 00:40:23;;;;;;;6.30;3.92;;;14.00;97.10;;;;;;5080582;28;19919;-60
2023/06/16 00:42:49;;;;;;;5.90;4.07;;;14.00;96.90;;;;;;5086207;28;20051;-60
2023/06/16 00:45:15;;;;;;;;;;;13.90;96.80;;;;;;5075817;28;20040;-60
2023/06/16 00:47:41;;;;;;;5.85;3.38;;;13.80;97.00;;;;;;5074470;28;19921;-60
2023/06/16 00:50:07;;;;;;;5.97;3.88;;;13.80;97.20;;;;;;5071693;28;20049;-60
2023/06/16 00:52:37;;;;;;;6.03;3.40;;;13.80;97.60;;;;;;5085027;28;20047;-61
2023/06/16 00:55:03;;;;;;;15.07;4.07;;;13.70;96.90;;;;;;5068549;28;20040;-60
2023/06/16 00:57:28;;;;;;;;;;;13.70;97.10;;;;;;5088758;28;20613;-59
2023/06/16 00:59:54;;;;;;;9.50;3.70;;;13.60;97.20;;;;;;5075333;28;19924;-59
2023/06/16 01:02:20;;;;;;;;;;;13.60;97.50;;;;;;5081173;28;20404;-58
2023/06/16 01:04:47;;;;;;;6.43;3.33;;;13.60;97.60;;;;;;5077806;28;20365;-57
2023/06/16 01:07:25;;;;;;;12.48;3.67;;;13.50;97.30;;;;;;5079818;28;20048;-60
2023/06/16 01:10:18;;;;;;;8.48;3.90;;;13.50;97.80;;;;;;5077372;28;20036;-60
2023/06/16 01:12:52;;;;;;;11.65;4.70;;;13.50;97.60;;;;;;5082568;28;20104;-59
2023/06/16 01:15:22;;;;;;;7.45;4.13;;;13.40;97.90;;;;;;5071084;28;20154;-60
2023/06/16 01:17:54;;;;;;;6.68;4.13;;;13.40;98.30;;;;;;5070960;28;20045;-54
2023/06/16 01:20:57;;;;;;;10.98;4.43;;;13.30;98.10;;;;;;5079634;28;20780;-60
2023/06/16 01:23:28;;;;;;;8.95;3.80;;;13.30;98.10;;;;;;5079046;28;20419;-58
2023/06/16 01:25:58;;;;;;;5.55;3.60;;;13.30;98.10;;;;;;5078433;28;20040;-60
2023/06/16 01:28:25;;;;;;;7.80;3.97;;;13.20;98.60;;;;;;5081914;28;20040;-60
2023/06/16 01:30:52;;;;;;;8.23;3.95;;;13.30;98.60;;;;;;5077485;28;20047;-58
2023/06/16 01:33:24;;;;;;;12.13;3.92;;;13.20;98.60;;;;;;5079805;28;20028;-58
2023/06/16 01:35:53;;;;;;;6.90;4.25;;;13.20;99.00;;;;;;5074560;28;20048;-61
2023/06/16 01:38:21;;;;;;;8.15;4.38;;;13.20;99.00;;;;;;5074872;28;20035;-60
2023/06/16 01:40:50;;;;;;;8.75;4.30;;;13.20;98.90;;;;;;5075425;28;20089;-60
2023/06/16 01:43:16;;;;;;;9.32;4.10;;;13.10;98.80;;;;;;5083949;28;20044;-60
2023/06/16 01:45:43;;;;;;;18.02;4.38;;;13.00;98.90;;;;;;5075135;28;20047;-62
2023/06/16 01:48:09;;;;;;;5.78;3.80;;;13.00;98.80;;;;;;5075897;28;20076;-60
2023/06/16 01:50:35;;;;;;;;;;;13.10;98.30;;;;;;5078244;28;20698;-59
2023/06/16 01:53:00;;;;;;;8.18;3.85;;;13.10;98.00;;;;;;5083953;28;20006;-60
2023/06/16 01:55:26;;;;;;;;;;;13.10;98.30;;;;;;5074984;28;20130;-58
2023/06/16 01:57:53;;;;;;;7.40;3.55;;;13.10;98.20;;;;;;5085151;28;19927;-60
2023/06/16 02:00:43;;;;;;;8.13;3.72;;;13.10;98.10;;;;;;5077329;28;20504;-59
2023/06/16 02:03:15;;;;;;;6.35;3.80;;;13.10;98.30;;;;;;5081105;28;20078;-61
2023/06/16 02:05:44;;;;;;;10.52;4.10;;;13.10;98.30;;;;;;5073149;28;20055;-60
2023/06/16 02:08:12;;;;;;;5.97;4.32;;;13.10;98.60;;;;;;5081467;28;20040;-61
2023/06/16 02:10:38;;;;;;;6.70;3.67;;;13.00;98.70;;;;;;5075479;28;20067;-60
2023/06/16 02:13:04;;;;;;;5.32;3.78;;;12.90;99.00;;;;;;5083563;28;20122;-59
2023/06/16 02:15:32;;;;;;;;;;;12.90;99.00;;;;;;5075278;28;20047;-59
2023/06/16 02:17:58;;;;;;;6.80;3.22;;;13.00;98.90;;;;;;5079115;28;19944;-61
2023/06/16 02:20:27;;;;;;;;;;;13.00;98.90;;;;;;5078381;28;20095;-56
2023/06/16 02:22:53;;;;;;;5.95;3.60;;;12.90;98.90;;;;;;5083887;28;19916;-59
2023/06/16 02:25:18;;;;;;;9.90;4.05;;;12.80;99.00;;;;;;5071235;28;20047;-59
2023/06/16 02:27:44;;;;;;;;;;;12.80;99.20;;;;;;5078102;28;20040;-60
2023/06/16 02:30:13;;;;;;;7.43;4.07;;;12.70;99.90;;;;;;5071245;28;19964;-57
2023/06/16 02:32:39;;;;;;;12.35;4.35;;;12.70;99.80;;;;;;5074671;28;20044;-57
2023/06/16 02:35:06;;;;;;;7.43;4.18;;;12.70;99.90;;;;;;5067116;28;20408;-60
2023/06/16 02:37:35;;;;;;;7.15;4.47;;;12.70;99.90;;;;;;5079689;28;20067;-60
2023/06/16 02:40:04;;;;;;;9.57;4.00;;;12.60;99.90;;;;;;5076577;28;20032;-59
2023/06/16 02:42:29;;;;;;;15.50;5.20;;;12.50;99.90;;;;;;5082785;28;20047;-57
2023/06/16 02:44:55;;;;;;;;;;;12.60;99.90;;;;;;5075935;28;20036;-60
2023/06/16 02:47:20;;;;;;;6.68;4.40;;;12.60;99.90;;;;;;5078709;28;19927;-58
2023/06/16 02:49:46;;;;;;;;;;;12.50;99.90;;;;;;5075374;28;20492;-59
2023/06/16 02:52:11;;;;;;;6.32;3.83;;;12.50;99.90;;;;;;5078359;28;19974;-60
2023/06/16 02:54:38;;;;;;;;;;;12.50;99.90;;;;;;5068391;28;20070;-61
2023/06/16 02:57:05;;;;;;;8.55;4.93;;;12.50;99.90;;;;;;5081550;28;20445;-60
2023/06/16 02:59:31;;;;;;;10.38;4.40;;;12.40;99.90;;;;;;5081109;28;20051;-61
2023/06/16 03:01:56;;;;;;;;;;;12.30;99.90;;;;;;5073485;28;20059;-61
2023/06/16 03:04:22;;;;;;;6.40;4.35;;;12.30;99.90;;;;;;5075325;28;19979;-60
2023/06/16 03:06:47;;;;;;;;;;;12.20;99.90;;;;;;5073855;28;20051;-57
2023/06/16 03:09:13;;;;;;;6.32;3.85;;;12.20;99.90;;;;;;5079652;28;19920;-60
2023/06/16 03:11:40;;;;;;;;;;;12.20;99.90;;;;;;5078986;28;20562;-60
2023/06/16 03:14:06;;;;;;;8.15;4.25;;;12.20;99.90;;;;;;5078333;28;20433;-59
2023/06/16 03:16:31;;;;;;;;;;;12.20;99.90;;;;;;5072786;28;20618;-58
2023/06/16 03:18:57;;;;;;;8.13;3.88;;;12.10;99.90;;;;;;5072626;28;19920;-60
2023/06/16 03:21:22;;;;;;;;;;;12.10;99.90;;;;;;5079315;28;20035;-56
2023/06/16 03:23:50;;;;;;;6.93;4.07;;;12.10;99.90;;;;;;5082221;28;19923;-61
2023/06/16 03:26:18;;;;;;;5.25;4.05;;;12.10;99.90;;;;;;5074443;28;20134;-61
2023/06/16 03:28:45;;;;;;;10.00;3.67;;;12.00;99.90;;;;;;5048738;28;20033;-57
2023/06/16 03:31:10;;;;;;;6.32;4.50;;;12.00;99.90;;;;;;5050980;28;20036;-61
2023/06/16 03:33:36;;;;;;;;;;;12.00;99.90;;;;;;5059019;28;20040;-61
2023/06/16 03:36:02;;;;;;;6.82;4.32;;;12.00;99.90;;;;;;5059680;28;19919;-59
2023/06/16 03:38:27;;;;;;;;;;;12.00;99.90;;;;;;5060179;28;20517;-59
2023/06/16 03:40:53;;;;;;;5.93;4.18;;;12.10;99.90;;;;;;5061897;28;20038;-59
2023/06/16 03:43:18;;;;;;;6.43;4.22;;;12.20;99.90;;;;;;5075788;28;20032;-61
2023/06/16 03:45:44;;;;;;;;;;;12.30;99.90;;;;;;5063199;28;20127;-58
2023/06/16 03:48:09;;;;;;;7.68;4.38;;;12.30;99.90;;;;;;5072147;28;20751;-61
2023/06/16 03:50:35;;;;;;;;;;;12.40;99.90;;;;;;5061902;28;20602;-61
2023/06/16 03:53:01;;;;;;;4.72;3.67;;;12.60;99.90;;;;;;5071231;28;19919;-60
2023/06/16 03:55:28;;;;;;;;;;;12.60;99.90;;;;;;5072859;28;20042;-61
2023/06/16 03:57:54;;;;;;;7.90;3.95;;;12.60;99.90;;;;;;5075244;28;20003;-60
2023/06/16 04:00:19;;;;;;;;;;;12.60;99.90;;;;;;5075543;28;20127;-60
2023/06/16 04:02:45;;;;;;;5.22;4.20;;;12.60;99.90;;;;;;5075787;28;19947;-61
2023/06/16 04:05:10;;;;;;;;;;;12.70;99.90;;;;;;5063001;28;20051;-59
2023/06/16 04:07:36;;;;;;;10.18;3.95;;;12.80;99.90;;;;;;5075879;28;19920;-59
2023/06/16 04:10:02;;;;;;;8.90;3.90;;;12.70;99.90;;;;;;5072392;28;20560;-62
2023/06/16 04:12:28;;;;;;;;;;;12.70;99.90;;;;;;5078523;28;20668;-61
2023/06/16 04:14:53;;;;;;;9.55;4.60;;;12.70;99.90;;;;;;5074516;28;19928;-60
2023/06/16 04:17:19;;;;;;;7.32;4.47;;;12.70;99.90;;;;;;5072522;28;20112;-62
2023/06/16 04:19:46;;;;;;;;;;;12.80;99.90;;;;;;5067886;28;20044;-58
2023/06/16 04:22:11;;;;;;;5.63;4.10;;;12.80;99.90;;;;;;5072917;28;19920;-60
2023/06/16 04:24:37;;;;;;;;;;;13.10;99.90;;;;;;5072407;28;20063;-60
2023/06/16 04:27:03;;;;;;;12.43;4.95;;;13.10;99.90;;;;;;5080854;28;19927;-61
2023/06/16 04:29:28;;;;;;;5.90;4.25;;;13.10;99.90;;;;;;5070323;28;20044;-59
2023/06/16 04:31:59;;;;;;;;;;;13.30;99.90;;;;;;5077254;28;20100;-59
2023/06/16 04:34:26;;;;;;;8.57;4.10;;;13.50;99.90;;;;;;5075575;28;19971;-59
2023/06/16 04:36:53;;;;;;;6.93;4.32;;;14.10;99.90;;;;;;5072056;28;20036;-59
2023/06/16 04:39:19;;;;;;;7.95;4.65;;;14.30;99.90;;;;;;5075807;28;20092;-61
2023/06/16 04:41:44;;;;;;;;;;;14.20;99.90;;;;;;5082294;28;20044;-58
2023/06/16 04:44:10;;;;;;;8.40;4.22;;;14.10;99.90;;;;;;5078864;28;20125;-61
2023/06/16 04:46:37;;;;;;;7.80;4.22;;;14.20;99.90;;;;;;5073677;28;20751;-59
2023/06/16 04:49:03;;;;;;;7.03;4.40;;;14.10;99.90;;;;;;5072035;28;20487;-61
2023/06/16 04:51:29;;;;;;;9.05;4.28;;;14.10;99.90;;;;;;5073266;28;20667;-61
2023/06/16 04:53:55;;;;;;;;;;;14.10;99.90;;;;;;5079257;28;20047;-60
2023/06/16 04:56:20;;;;;;;8.68;4.20;;;14.30;99.90;;;;;;5070651;28;20360;-59
2023/06/16 04:58:46;;;;;;;;;;;14.90;99.90;;;;;;5078218;28;20040;-60
2023/06/16 05:01:12;;;;;;;10.52;4.72;;;15.10;99.90;;;;;;5076324;28;19923;-59
2023/06/16 05:03:37;;;;;;;;;;;15.00;99.90;;;;;;5079784;28;20048;-61
2023/06/16 05:06:03;;;;;;;8.80;3.88;;;14.90;99.90;;;;;;5067202;28;20022;-60
2023/06/16 05:08:29;;;;;;;;;;;14.80;99.90;;;;;;5080385;28;20047;-61
2023/06/16 05:10:54;;;;;;;8.73;3.53;;;14.90;99.90;;;;;;5074092;28;19922;-60
2023/06/16 05:13:20;;;;;;;;;;;14.90;99.90;;;;;;5076787;28;20040;-61
2023/06/16 05:15:46;;;;;;;10.15;4.13;;;14.90;99.90;;;;;;5060236;28;20706;-60
2023/06/16 05:18:11;;;;;;;7.13;4.15;;;15.00;99.90;;;;;;5079221;28;20047;-59
2023/06/16 05:20:37;;;;;;;7.38;4.53;;;15.10;99.90;;;;;;5073147;28;20032;-62
2023/06/16 05:23:03;;;;;;;;;;;15.10;99.90;;;;;;5079497;28;20043;-58
2023/06/16 05:25:30;;;;;;;7.60;3.90;;;15.20;99.90;;;;;;5074187;28;19966;-60
2023/06/16 05:27:56;;;;;;;7.63;5.10;;;15.60;99.90;;;;;;5076683;28;20048;-58
2023/06/16 05:30:21;;;;;;;;;;;15.80;99.90;;;;;;5070307;28;20073;-58
2023/06/16 05:32:48;;;;;;;9.13;4.15;;;15.80;99.90;;;;;;5079029;28;19924;-61
2023/06/16 05:35:14;;;;;;;5.65;3.95;;;15.90;99.90;;;;;;5074153;28;20045;-62
2023/06/16 05:37:39;;;;;;;;;;;16.00;99.90;;;;;;5071191;28;20040;-63
2023/06/16 05:40:05;;;;;;;9.35;4.03;;;16.10;99.90;;;;;;5072345;28;19921;-62
2023/06/16 05:42:33;;;;;;;8.68;3.92;;;16.20;99.90;;;;;;5082498;28;20850;-59
2023/06/16 05:44:58;;;;;;;7.30;4.18;;;16.60;99.10;;;;;;5059185;28;20295;-64
2023/06/16 05:47:24;;;;;;;;;;;16.90;98.60;;;;;;5074309;28;20500;-62
2023/06/16 05:49:52;;;;;;;9.52;3.83;;;17.00;98.70;;;;;;5073837;28;19920;-63
2023/06/16 05:52:18;;;;;;;7.75;3.20;;;17.00;98.50;;;;;;5072147;28;20090;-61
2023/06/16 05:54:43;;;;;;;;;;;17.10;98.60;;;;;;5075534;28;20040;-60
2023/06/16 05:57:09;;;;;;;6.30;3.90;;;17.20;98.40;;;;;;5079368;28;20031;-63
2023/06/16 05:59:35;;;;;;;;;;;17.30;97.70;;;;;;5073969;28;20101;-63
2023/06/16 06:02:00;;;;;;;7.82;4.43;;;17.40;96.80;;;;;;5068541;28;19916;-61
2023/06/16 06:04:27;;;;;;;;;;;17.70;95.50;;;;;;5080613;28;20047;-59
2023/06/16 06:06:53;;;;;;;6.82;4.00;;;17.90;94.50;;;;;;5071905;28;20466;-61
2023/06/16 06:09:18;;;;;;;;;;;18.00;95.30;;;;;;5079480;28;20060;-63
2023/06/16 06:11:44;;;;;;;8.32;4.53;;;18.00;94.80;;;;;;5067800;28;19920;-64
2023/06/16 06:14:11;;;;;;;;;;;18.30;93.80;;;;;;5080815;28;20040;-63
2023/06/16 06:16:37;;;;;;;;;;;18.50;93.60;;;;;;5065441;28;20011;-62
2023/06/16 06:19:02;;;;;;;;;;;19.50;93.20;;;;;;5079089;28;19920;-63
2023/06/16 06:21:28;;;;;;;;;;;21.20;88.50;;;;;;5066793;28;19955;-58
2023/06/16 06:23:53;;;;;;;;;;;21.40;83.50;;;;;;5074279;28;19965;-61
2023/06/16 06:26:20;;;;;;;;;;;20.90;86.90;;;;;;5071801;28;19927;-62
2023/06/16 06:28:45;;;;;;;;;;;20.50;88.30;;;;;;5082030;28;19922;-63
2023/06/16 06:31:11;;;;;;;;;;;19.90;90.20;;;;;;5073856;28;20291;-61
2023/06/16 06:33:36;;;;;;;;;;;19.60;90.70;;;;;;5072378;28;19927;-62
2023/06/16 06:36:02;;;;;;;;;;;19.40;91.70;;;;;;5065492;28;19974;-58
2023/06/16 06:38:28;;;;;;;;;;;19.70;89.10;;;;;;5076137;28;19969;-61
2023/06/16 06:40:53;;;;;;;;;;;19.90;90.00;;;;;;5066216;28;19916;-62
2023/06/16 06:43:19;;;;;;;;;;;19.90;89.20;;;;;;5077068;28;20600;-60
2023/06/16 06:45:45;;;;;;;;;;;19.70;90.90;;;;;;5071453;28;19924;-61
2023/06/16 06:48:11;;;;;;;;;;;19.60;87.90;;;;;;5084152;28;20433;-58
2023/06/16 06:50:36;;;;;;;;;;;19.70;89.00;;;;;;5065136;28;19916;-62
2023/06/16 06:53:02;;;;;;;;;;;19.80;90.40;;;;;;5073920;28;19998;-62
2023/06/16 06:55:27;;;;;;;;;;;20.80;86.60;;;;;;5071685;28;20462;-61
2023/06/16 06:57:53;;;;;;;;;;;21.70;81.70;;;;;;5068292;28;19927;-61
2023/06/16 07:00:18;;;;;;;;;;;22.00;81.70;;;;;;5070465;28;20554;-60
2023/06/16 07:02:44;;;;;;;;;;;22.10;80.10;;;;;;5077381;28;19923;-59
2023/06/16 07:05:10;;;;;;;;;;;21.70;81.20;;;;;;5073040;28;19920;-59
2023/06/16 07:07:35;;;;;;;;;;;21.30;84.00;;;;;;5073534;28;19923;-59
2023/06/16 07:10:01;;;;;;;;;;;21.20;84.80;;;;;;5072325;28;19920;-58
2023/06/16 07:12:27;;;;;;;;;;;20.80;85.00;;;;;;5074104;28;19920;-61
2023/06/16 07:14:52;;;;;;;;;;;20.40;85.10;;;;;;5072011;28;20042;-62
2023/06/16 07:17:18;;;;;;;;;;;20.30;86.80;;;;;;5082495;28;20007;-57
2023/06/16 07:19:43;;;;;;;;;;;20.20;85.00;;;;;;5072784;28;19994;-61
2023/06/16 07:22:09;;;;;;;;;;;20.20;88.20;;;;;;5071649;28;19920;-61
2023/06/16 07:24:35;;;;;;;;;;;20.20;88.80;;;;;;5074587;28;20009;-62
2023/06/16 07:27:01;;;;;;;;;;;21.10;82.50;;;;;;5086087;28;20623;-59
2023/06/16 07:29:28;;;;;;;;;;;21.90;80.50;;;;;;5077331;28;19920;-62
2023/06/16 07:31:53;;;;;;;;;;;22.60;78.00;;;;;;5072865;28;19915;-60
2023/06/16 07:34:19;;;;;;;;;;;22.70;74.90;;;;;;5080895;28;19920;-61
2023/06/16 07:36:44;;;;;;;;;;;22.60;77.60;;;;;;5066791;28;19920;-61
2023/06/16 07:39:10;;;;;;;;;;;22.10;80.60;;;;;;5081281;28;19955;-60
2023/06/16 07:41:36;;;;;;;;;;;21.70;79.20;;;;;;5071274;28;20003;-62
2023/06/16 07:44:02;;;;;;;;;;;21.30;76.50;;;;;;5081094;28;20695;-59
2023/06/16 07:46:28;;;;;;;;;;;21.10;80.90;;;;;;5070347;28;20380;-61
2023/06/16 07:48:53;;;;;;;;;;;20.90;82.00;;;;;;5080456;28;20031;-60
2023/06/16 07:51:21;;;;;;;;;;;20.90;83.20;;;;;;5066833;28;19931;-61
2023/06/16 07:53:48;;;;;;;;;;;20.70;84.40;;;;;;5080534;28;19920;-59
2023/06/16 07:56:14;;;;;;;;;;;20.60;83.50;;;;;;5079378;28;19920;-62
2023/06/16 07:58:39;;;;;;;;;;;20.40;83.40;;;;;;5085736;28;19931;-62
2023/06/16 08:01:05;;;;;;;;;;;20.40;85.30;;;;;;5077260;28;19920;-62
2023/06/16 08:03:31;;;;;;;;;;;20.40;85.70;;;;;;5080647;28;19920;-61
2023/06/16 08:05:57;;;;;;;;;;;20.30;85.10;;;;;;5071184;28;20024;-60
2023/06/16 08:08:23;;;;;;;;;;;20.40;85.00;;;;;;5076398;28;19930;-60
2023/06/16 08:10:49;;;;;;;;;;;21.40;81.60;;;;;;5075043;28;20447;-61
2023/06/16 08:13:15;;;;;;;;;;;21.80;78.70;;;;;;5084949;28;19926;-65
2023/06/16 08:15:40;;;;;;;;;;;21.90;80.40;;;;;;5077408;28;19920;-61
2023/06/16 08:18:06;;;;;;;;;;;21.70;81.10;;;;;;5081020;28;19916;-61
2023/06/16 08:20:32;;;;;;;;;;;21.40;82.80;;;;;;5071978;28;19926;-61
2023/06/16 08:22:58;;;;;;;;;;;21.10;81.10;;;;;;5074238;28;19977;-62
2023/06/16 08:25:23;;;;;;;;;;;21.30;84.30;;;;;;5072168;28;19920;-59
2023/06/16 08:27:49;;;;;;;;;;;21.20;83.30;;;;;;5076366;28;19920;-60
2023/06/16 08:30:17;;;;;;;;;;;21.20;81.80;;;;;;5078968;28;20240;-60
2023/06/16 08:32:43;;;;;;;;;;;21.30;80.00;;;;;;5084899;28;20698;-62
2023/06/16 08:35:10;;;;;;;;;;;21.50;80.70;;;;;;5065346;28;19927;-62
2023/06/16 08:37:36;;;;;;;;;;;22.30;77.00;;;;;;5063101;28;19927;-61
2023/06/16 08:40:03;;;;;;;;;;;22.90;75.90;;;;;;5067366;28;19920;-62
2023/06/16 08:42:29;;;;;;;;;;;22.90;77.30;;;;;;5083433;28;19923;-62
2023/06/16 08:44:55;;;;;;;;;;;22.70;79.00;;;;;;5070163;28;20245;-59
2023/06/16 08:47:21;;;;;;;;;;;22.80;77.60;;;;;;5073539;28;19931;-61
2023/06/16 08:49:46;;;;;;;;;;;23.90;75.90;;;;;;5079642;28;19920;-60
2023/06/16 08:52:16;;;;;;;;;;;24.80;73.60;;;;;;5076143;28;19931;-61
2023/06/16 08:54:46;;;;;;;;;;;24.80;70.50;;;;;;5077561;28;19923;-61
2023/06/16 08:57:13;;;;;;;;;;;24.50;69.90;;;;;;5082383;28;20624;-60
2023/06/16 08:59:39;;;;;;;;;;;23.70;71.50;;;;;;5072746;28;20470;-60
2023/06/16 09:02:05;;;;;;;;;;;23.10;76.30;;;;;;5081323;28;20410;-59
2023/06/16 09:04:33;;;;;;;;;;;22.80;74.90;;;;;;5077895;28;19919;-60
2023/06/16 09:06:59;;;;;;;;;;;22.50;76.20;;;;;;5068591;28;19920;-61
2023/06/16 09:09:26;;;;;;;;;;;22.40;78.40;;;;;;5066422;28;19920;-60
2023/06/16 09:12:08;;;;;;;;;;;22.30;76.00;;;;;;5077998;28;20348;-61
2023/06/16 09:14:36;;;;;;;;;;;22.20;76.50;;;;;;5068326;28;20304;-61
2023/06/16 09:17:05;;;;;;;;;;;21.90;80.10;;;;;;5077511;28;19954;-62
2023/06/16 09:19:34;;;;;;;;;;;21.60;79.50;;;;;;5078580;28;20391;-61
2023/06/16 09:21:59;;;;;;;;;;;21.60;78.10;;;;;;5066344;28;19939;-57
2023/06/16 09:24:29;;;;;;;;;;;21.70;79.00;;;;;;5071556;28;20387;-60
2023/06/16 09:26:59;;;;;;;;;;;21.50;77.50;;;;;;5079790;28;19924;-61
2023/06/16 09:29:25;;;;;;;;;;;21.20;79.40;;;;;;5079290;28;19920;-60
2023/06/16 09:31:51;;;;;;;;;;;21.10;79.40;;;;;;5079168;28;19970;-60
2023/06/16 09:34:16;;;;;;;;;;;21.00;82.30;;;;;;5073103;28;19971;-60
2023/06/16 09:36:42;;;;;;;;;;;21.00;82.90;;;;;;5070456;28;19916;-62
2023/06/16 09:39:23;;;;;;;;;;;21.00;84.10;;;;;;5081708;28;19916;-61
2023/06/16 09:41:50;;;;;;;;;;;21.10;81.70;;;;;;5075326;28;20011;-61
2023/06/16 09:44:15;;;;;;;;;;;21.00;81.60;;;;;;5070580;28;19977;-60
2023/06/16 09:46:41;;;;;;;;;;;21.00;82.20;;;;;;5069042;28;19924;-65
2023/06/16 09:49:07;;;;;;;;;;;21.10;82.70;;;;;;5080003;28;20025;-62
2023/06/16 09:51:32;;;;;;;;;;;21.20;80.60;;;;;;5079158;28;19920;-61
2023/06/16 09:53:58;;;;;;;;;;;21.10;84.00;;;;;;5071258;28;19961;-63
2023/06/16 09:56:23;;;;;;;;;;;21.30;79.90;;;;;;5078992;28;20248;-61
2023/06/16 09:58:49;;;;;;;;;;;21.40;81.60;;;;;;5074504;28;19928;-64
2023/06/16 10:01:16;;;;;;;;;;;21.50;80.00;;;;;;5069398;28;19919;-63
2023/06/16 10:03:43;;;;;;;;;;;21.50;78.90;;;;;;5078567;28;19950;-61
2023/06/16 10:06:30;;;;;;;;;;;21.40;77.00;;;;;;5075196;28;20317;-62
2023/06/16 10:08:56;;;;;;;;;;;21.30;76.30;;;;;;5076292;28;19944;-60
2023/06/16 10:11:22;;;;;;;;;;;21.30;79.20;;;;;;5068363;28;19989;-60
2023/06/16 10:13:51;;;;;;;;;;;21.30;73.60;;;;;;5069596;28;20372;-60
2023/06/16 10:16:19;;;;;;;;;;;21.40;76.50;;;;;;5066742;28;20552;-60
2023/06/16 10:18:45;;;;;;;;;;;21.40;78.40;;;;;;5074633;28;20392;-62
2023/06/16 10:21:11;;;;;;;;;;;21.20;77.10;;;;;;5089743;28;19995;-60
2023/06/16 10:23:36;;;;;;;;;;;21.20;75.30;;;;;;5068229;28;20017;-61
2023/06/16 10:26:05;;;;;;;;;;;21.30;75.70;;;;;;5068894;28;19986;-62
2023/06/16 10:28:32;;;;;;;;;;;21.50;75.70;;;;;;5066316;28;19920;-63
2023/06/16 10:30:58;;;;;;;;;;;21.50;76.20;;;;;;5070369;28;20331;-61
2023/06/16 10:33:25;;;;;;;;;;;21.40;76.80;;;;;;5082399;28;20042;-63
2023/06/16 10:35:56;;;;;;;;;;;21.30;74.60;;;;;;5070846;28;19916;-63
2023/06/16 10:38:32;;;;;;;;;;;21.50;74.30;;;;;;5064058;28;19973;-63
2023/06/16 10:40:58;;;;;;;;;;;21.60;72.20;;;;;;5069535;28;19917;-61
2023/06/16 10:43:25;;;;;;;;;;;21.70;74.70;;;;;;5072546;28;20664;-62
2023/06/16 10:46:10;;;;;;;;;;;21.80;73.70;;;;;;5075805;28;19931;-63
2023/06/16 10:48:56;;;;;;;;;;;21.80;71.60;;;;;;5069902;28;19950;-62
2023/06/16 10:51:41;;;;;;;;;;;22.00;70.70;;;;;;5049585;28;19912;-63
2023/06/16 10:54:07;;;;;;;;;;;22.00;68.60;;;;;;5064670;28;19919;-62
2023/06/16 10:56:52;;;;;;;;;;;22.10;68.80;;;;;;5074556;28;19918;-64
2023/06/16 10:59:17;;;;;;;;;;;22.20;69.40;;;;;;5081374;28;19927;-61
2023/06/16 11:01:46;;;;;;;;;;;22.40;66.50;;;;;;5074411;28;19916;-62
2023/06/16 11:04:14;;;;;;;;;;;22.30;62.20;;;;;;5077180;28;19923;-62
2023/06/16 11:06:58;;;;;;;;;;;22.30;63.90;;;;;;5064688;28;19924;-62
2023/06/16 11:09:28;;;;;;;;;;;22.20;67.10;;;;;;5079983;28;19954;-62
2023/06/16 11:11:57;;;;;;;;;;;22.40;67.90;;;;;;5082294;28;19924;-63
2023/06/16 11:14:23;;;;;;;;;;;22.30;63.80;;;;;;5079368;28;20372;-59
2023/06/16 11:16:48;;;;;;;;;;;22.40;67.70;;;;;;5073878;28;19938;-62
2023/06/16 11:19:17;;;;;;;;;;;22.30;68.50;;;;;;5076823;28;19920;-63
2023/06/16 11:21:43;;;;;;;;;;;22.30;68.30;;;;;;5064412;28;19919;-64
2023/06/16 11:24:09;;;;;;;;;;;22.40;67.40;;;;;;5077195;28;19920;-63
2023/06/16 11:26:35;;;;;;;;;;;22.10;65.90;;;;;;5077281;28;19985;-61
2023/06/16 11:29:00;;;;;;;;;;;22.10;68.30;;;;;;5078522;28;19921;-62
2023/06/16 11:31:26;;;;;;;;;;;22.30;66.40;;;;;;5075293;28;19939;-61
2023/06/16 11:33:55;;;;;;;;;;;22.40;66.60;;;;;;5069590;28;20340;-59
2023/06/16 11:36:22;;;;;;;;;;;22.20;68.10;;;;;;5065832;28;19916;-62
2023/06/16 11:38:52;;;;;;;;;;;21.90;69.40;;;;;;5079638;28;19927;-62
2023/06/16 11:41:18;;;;;;;;;;;22.00;70.30;;;;;;5079695;28;20333;-63
2023/06/16 11:43:45;;;;;;;;;;;22.20;67.00;;;;;;5082841;28;19916;-62
2023/06/16 11:46:11;;;;;;;;;;;22.50;68.70;;;;;;5069285;28;20015;-64
2023/06/16 11:48:37;;;;;;;;;;;22.70;67.60;;;;;;5076441;28;20035;-61
2023/06/16 11:51:04;;;;;;;;;;;22.50;66.70;;;;;;5071237;28;19920;-62
2023/06/16 11:53:30;;;;;;;;;;;22.40;66.70;;;;;;5083015;28;19969;-62
2023/06/16 11:55:59;;;;;;;;;;;22.40;66.90;;;;;;5073459;28;20184;-61
2023/06/16 11:58:26;;;;;;;;;;;22.50;68.80;;;;;;5076550;28;19947;-60
2023/06/16 12:00:54;;;;;;;;;;;22.60;67.50;;;;;;5076920;28;19944;-61
2023/06/16 12:03:21;;;;;;;;;;;22.60;68.00;;;;;;5076078;28;20034;-62
2023/06/16 12:05:46;;;;;;;;;;;22.70;66.60;;;;;;5075750;28;19924;-63
2023/06/16 12:08:12;;;;;;;;;;;22.90;67.40;;;;;;5081668;28;19985;-63
2023/06/16 12:10:37;;;;;;;;;;;22.70;66.70;;;;;;5067515;28;19920;-62
2023/06/16 12:13:07;;;;;;;;;;;22.60;64.00;;;;;;5072680;28;20385;-62
2023/06/16 12:15:32;;;;;;;;;;;22.30;67.70;;;;;;5078090;28;19919;-61
2023/06/16 12:17:58;;;;;;;;;;;22.30;67.70;;;;;;5077610;28;19981;-61
2023/06/16 12:20:23;;;;;;;;;;;22.60;68.60;;;;;;5073644;28;20572;-62
2023/06/16 12:22:53;;;;;;;;;;;22.80;65.80;;;;;;5086180;28;19920;-62
2023/06/16 12:25:21;;;;;;;;;;;22.90;65.70;;;;;;5077998;28;19931;-62
2023/06/16 12:27:51;;;;;;;;;;;22.90;65.90;;;;;;5082652;28;19928;-61
2023/06/16 12:30:17;;;;;;;;;;;22.60;64.80;;;;;;5073652;28;20367;-61
2023/06/16 12:32:44;;;;;;;;;;;22.20;65.00;;;;;;5078819;28;20002;-62
2023/06/16 12:35:09;;;;;;;;;;;22.00;68.10;;;;;;5079871;28;19931;-62
2023/06/16 12:37:38;;;;;;;;;;;22.10;67.40;;;;;;5080179;28;19916;-62
2023/06/16 12:40:06;;;;;;;;;;;22.40;67.30;;;;;;5071203;28;20022;-63
2023/06/16 12:42:32;;;;;;;;;;;22.70;66.80;;;;;;5084837;28;19923;-62
2023/06/16 12:45:02;;;;;;;;;;;22.60;65.60;;;;;;5072914;28;19916;-62
2023/06/16 12:47:28;;;;;;;;;;;22.20;66.50;;;;;;5064416;28;19930;-60
2023/06/16 12:49:55;;;;;;;;;;;22.40;65.00;;;;;;5076977;28;19921;-63
2023/06/16 12:52:21;;;;;;;;;;;22.70;65.00;;;;;;5084100;28;19926;-62
2023/06/16 12:54:47;;;;;;;;;;;22.70;64.70;;;;;;5073329;28;20387;-64
2023/06/16 12:57:13;;;;;;;;;;;22.40;65.30;;;;;;5080188;28;20014;-64
2023/06/16 12:59:38;;;;;;;;;;;22.50;65.40;;;;;;5082588;28;20006;-64
2023/06/16 13:02:04;;;;;;;;;;;22.90;64.60;;;;;;5072095;28;19916;-63
2023/06/16 13:04:30;;;;;;;;;;;23.00;65.30;;;;;;5072951;28;19919;-64
2023/06/16 13:06:55;;;;;;;;;;;22.90;63.80;;;;;;5074899;28;19920;-63
2023/06/16 13:09:21;;;;;;;;;;;23.00;62.20;;;;;;5081043;28;19956;-62
2023/06/16 13:11:57;;;;;;;;;;;23.30;63.00;;;;;;5077139;28;19967;-62
2023/06/16 13:14:23;;;;;;;;;;;23.40;61.60;;;;;;5088727;28;19920;-64
2023/06/16 13:16:49;;;;;;;;;;;23.00;63.20;;;;;;5072664;28;19943;-64
2023/06/16 13:19:14;;;;;;;;;;;23.10;63.30;;;;;;5074825;28;20015;-64
2023/06/16 13:21:40;;;;;;;;;;;23.00;65.80;;;;;;5074136;28;19927;-62
2023/06/16 13:24:05;;;;;;;;;;;23.00;64.80;;;;;;5080634;28;19924;-62
2023/06/16 13:26:31;;;;;;;;;;;23.00;62.30;;;;;;5095330;27;19924;-62
2023/06/16 13:28:56;;;;;;;;;;;23.10;60.80;;;;;;5080263;28;19920;-64
2023/06/16 13:31:22;;;;;;;;;;;23.10;63.80;;;;;;5073404;28;20057;-60
2023/06/16 13:33:48;;;;;;;;;;;23.30;66.80;;;;;;5072593;28;19959;-65
2023/06/16 13:36:18;;;;;;;;;;;23.70;64.70;;;;;;5065445;28;19967;-64
2023/06/16 13:38:45;;;;;;;;;;;23.90;62.90;;;;;;5082509;28;19985;-64
2023/06/16 13:41:12;;;;;;;;;;;24.00;62.40;;;;;;5076152;28;19916;-62
2023/06/16 13:43:38;;;;;;;;;;;24.00;62.60;;;;;;5084737;28;19915;-63
2023/06/16 13:46:03;;;;;;;;;;;24.10;60.80;;;;;;5082492;28;19924;-61